General Aviation Weather

Text Reports

Enter one or more of the following location identifiers separated by a space:

Zip Code, Four-Character ICAO or Three-Character IATA airport codes.

METAR - Aviation Routine Weather Report
ETHC - Celle,
Updated at 1:20 PM GMT on December 09, 2016 (2:20 PM CET):
METAR ETHC 091320Z 24011KT 8000 SCT011 OVC020 09/07 Q1026 WHT
TAF - Terminal Area Forecast
ETHC - Celle,
Updated at 1:20 PM GMT on December 09, 2016 (2:20 PM CET):
No TAF is currently available for this location.
Decoded:
No decoded TAF is available.
PIREP - Pilot Weather Report
ETHC - Celle,
Updated at 1:20 PM GMT on December 09, 2016 (2:20 PM CET):
No PIREP is currently available for this location.
AIRMET - Airmens Meteorological Information
ETHC - Celle,
Updated at 1:20 PM GMT on December 09, 2016 (2:20 PM CET):
No AIRMET is currently available for this location.
SIGMET - Significant Meteorological Information
ETHC - Celle,
Updated at 1:20 PM GMT on December 09, 2016 (2:20 PM CET):
No SIGMET is currently available for this location.
NOTAM - Notice to Airmen
ETHC - Celle,
Updated at 1:20 PM GMT on December 09, 2016 (2:20 PM CET):
No NOTAM is currently available for this location.
Forecast Area
ETHC - Celle,
Updated at 1:20 PM GMT on December 09, 2016 (2:20 PM CET):
No NOTAM is currently available for this location.
Aviation Weather Maps